This is the latest recevied weather packets stored in our database for station/object F5IOR-13. If no packets are shown the sender has not sent any weather packets the latest 10 day(s).
| Time | Temp. | Humidity | Pressure | Rain* | Wind** | Luminosity | Snow |
|---|---|---|---|---|---|---|---|
| 1777813707 | 17.78° C | 71% | 986.6 hPa | 3.05 mm | - | - | - |
| 1777811907 | 17.22° C | 70% | 986.8 hPa | 3.05 mm | - | - | - |
| 1777810107 | 16.67° C | 71% | 987.3 hPa | 3.05 mm | - | - | - |
| 1777808307 | 16.67° C | 73% | 987.4 hPa | 3.05 mm | - | - | - |
| 1777806507 | 15.56° C | 72% | 987.5 hPa | 3.05 mm | - | - | - |
| 1777804707 | 16.11° C | 69% | 987.5 hPa | 3.05 mm | - | - | - |
| 1777802907 | 14.44° C | 75% | 987.4 hPa | 4.32 mm | - | - | - |
| 1777801107 | 14.44° C | 73% | 987.4 hPa | 4.32 mm | - | - | - |
| 1777800147 | 15° C | 68% | 987.2 hPa | 4.32 mm | - | - | - |
| 1777799187 | 15° C | 67% | 987.1 hPa | 4.32 mm | - | - | - |
| 1777798227 | 15° C | 65% | 986.9 hPa | 4.32 mm | - | - | - |
| 1777797267 | 15° C | 61% | 986.5 hPa | 4.32 mm | - | - | - |
| 1777796787 | 15° C | 61% | 986.5 hPa | 4.32 mm | - | - | - |
| 1777796307 | 15° C | 61% | 986.5 hPa | 4.32 mm | - | - | - |
| 1777795827 | 15° C | 60% | 986.5 hPa | 4.32 mm | - | - | - |
| 1777795347 | 15° C | 60% | 986.5 hPa | 4.32 mm | - | - | - |
| 1777795107 | 15° C | 58% | 986.4 hPa | 4.32 mm | - | - | - |
| 1777794867 | 15° C | 58% | 986.4 hPa | 4.32 mm | - | - | - |
| 1777794627 | 15° C | 58% | 986.4 hPa | 4.32 mm | - | - | - |
| 1777794387 | 13.33° C | 72% | 986.8 hPa | 2.03 mm | - | - | - |
| 1777794267 | 13.33° C | 72% | 986.8 hPa | 2.03 mm | - | - | - |
| 1777794147 | 13.33° C | 72% | 986.8 hPa | 2.03 mm | - | - | - |
| 1777794027 | 13.33° C | 72% | 986.8 hPa | 2.03 mm | - | - | - |
| 1777793907 | 13.33° C | 72% | 986.8 hPa | 2.03 mm | - | - | - |
| 1777793847 | 13.33° C | 72% | 986.8 hPa | 2.03 mm | - | - | - |
* Rain latest hour (hover to see other rain measurements)
** Current wind speed in m/s (hover to see current wind gust speed)